createdAt,value
2019-05-01T00:01:18.322Z,19.95
2019-05-01T00:04:05.448Z,18.82
2019-05-01T00:06:43.348Z,16.93
2019-05-01T00:09:16.889Z,17.00
2019-05-01T00:11:48.863Z,18.73
2019-05-01T00:14:19.475Z,18.50
2019-05-01T00:16:50.682Z,19.35
2019-05-01T00:19:21.082Z,17.45
2019-05-01T00:21:51.501Z,16.45
2019-05-01T00:24:21.904Z,18.85
2019-05-01T00:26:52.313Z,15.93
2019-05-01T00:29:22.708Z,17.12
2019-05-01T00:31:53.404Z,18.52
2019-05-01T00:34:23.799Z,18.42
2019-05-01T00:36:55.686Z,18.95
2019-05-01T00:39:26.085Z,18.85
2019-05-01T00:41:57.968Z,20.05
2019-05-01T00:44:28.357Z,20.20
2019-05-01T00:46:58.861Z,18.48
2019-05-01T00:49:29.252Z,20.82
2019-05-01T00:51:59.661Z,21.17
2019-05-01T00:54:31.942Z,21.05
2019-05-01T00:57:03.899Z,22.32
2019-05-01T00:59:35.908Z,20.85
2019-05-01T01:02:19.693Z,21.27
2019-05-01T01:04:50.180Z,21.97
2019-05-01T01:07:22.141Z,22.17
2019-05-01T01:09:52.612Z,21.97
2019-05-01T01:12:24.691Z,23.20
2019-05-01T01:14:55.134Z,23.87
2019-05-01T01:17:27.135Z,22.80
2019-05-01T01:19:57.515Z,22.35
2019-05-01T01:22:27.938Z,23.27
2019-05-01T01:24:58.387Z,23.77
2019-05-01T01:27:28.905Z,23.45
2019-05-01T01:29:59.285Z,24.45
2019-05-01T01:32:29.706Z,23.07
2019-05-01T01:35:00.139Z,24.23
2019-05-01T01:37:30.664Z,23.83
2019-05-01T01:40:02.835Z,25.52
2019-05-01T01:42:33.488Z,24.72
2019-05-01T01:45:25.297Z,26.07
2019-05-01T01:48:11.334Z,25.17
2019-05-01T01:50:44.162Z,25.17
2019-05-01T01:53:17.703Z,23.95
2019-05-01T01:55:48.959Z,25.40
2019-05-01T01:58:21.337Z,23.95
2019-05-01T02:01:09.819Z,25.77
2019-05-01T02:03:44.808Z,25.00
2019-05-01T02:06:15.359Z,25.25
2019-05-01T02:08:56.226Z,25.17
2019-05-01T02:11:18.899Z,26.45
2019-05-01T02:13:49.583Z,26.48
2019-05-01T02:16:20.126Z,24.23
2019-05-01T02:18:50.853Z,25.32
2019-05-01T02:21:21.296Z,26.42
2019-05-01T02:23:51.675Z,26.15
2019-05-01T02:26:23.979Z,25.45
2019-05-01T02:29:12.464Z,26.70
2019-05-01T02:31:44.577Z,25.52
2019-05-01T02:34:16.968Z,25.60
2019-05-01T02:36:48.895Z,25.27
2019-05-01T02:39:20.257Z,24.30
2019-05-01T02:41:52.842Z,23.67
2019-05-01T02:44:32.106Z,24.15
2019-05-01T02:47:05.539Z,23.27
2019-05-01T02:49:42.047Z,25.45
2019-05-01T02:52:13.084Z,23.70
2019-05-01T02:54:46.036Z,22.95
2019-05-01T02:57:19.374Z,23.42
2019-05-01T02:59:52.769Z,24.50
2019-05-01T03:02:25.477Z,23.00
2019-05-01T03:04:58.056Z,23.05
2019-05-01T03:07:31.681Z,22.85
2019-05-01T03:10:08.993Z,22.90
2019-05-01T03:12:40.165Z,22.40
2019-05-01T03:15:12.324Z,21.87
2019-05-01T03:17:52.409Z,21.97
2019-05-01T03:20:24.362Z,22.55
2019-05-01T03:23:13.365Z,21.77
2019-05-01T03:25:45.033Z,21.05
2019-05-01T03:28:15.561Z,23.00
2019-05-01T03:30:46.146Z,23.45
2019-05-01T03:33:16.752Z,22.62
2019-05-01T03:35:47.675Z,23.55
2019-05-01T03:38:18.602Z,24.27
2019-05-01T03:40:49.597Z,23.67
2019-05-01T03:43:20.320Z,23.35
2019-05-01T03:45:51.400Z,23.10
2019-05-01T03:48:21.911Z,22.67
2019-05-01T03:50:53.823Z,22.05
2019-05-01T03:53:25.716Z,22.30
2019-05-01T03:55:56.625Z,21.62
2019-05-01T03:58:27.275Z,21.33
2019-05-01T04:01:15.930Z,21.75
2019-05-01T04:03:48.259Z,20.55
2019-05-01T04:06:19.096Z,21.95
2019-05-01T04:08:51.563Z,21.33
2019-05-01T04:11:22.773Z,21.42
2019-05-01T04:13:53.361Z,21.48
2019-05-01T04:16:24.619Z,20.88
2019-05-01T04:18:55.483Z,21.97
2019-05-01T04:21:27.484Z,23.50
2019-05-01T04:23:59.415Z,22.32
2019-05-01T04:26:29.836Z,22.30
2019-05-01T04:29:01.963Z,21.85
2019-05-01T04:31:37.058Z,21.95
2019-05-01T04:34:14.970Z,21.07
2019-05-01T04:36:47.236Z,23.27
2019-05-01T04:39:17.822Z,22.13
2019-05-01T04:41:48.232Z,21.50
2019-05-01T04:44:18.812Z,21.73
2019-05-01T04:46:49.895Z,23.38
2019-05-01T04:49:20.641Z,21.80
2019-05-01T04:51:51.242Z,21.87
2019-05-01T04:54:22.110Z,21.23
2019-05-01T04:56:52.847Z,21.27
2019-05-01T04:59:23.433Z,22.77
2019-05-01T05:01:57.282Z,22.65
2019-05-01T05:04:29.185Z,22.87
2019-05-01T05:07:00.478Z,21.42
2019-05-01T05:09:39.018Z,21.45
2019-05-01T05:12:11.319Z,20.20
2019-05-01T05:14:55.429Z,20.62
2019-05-01T05:17:27.394Z,20.85
2019-05-01T05:19:57.808Z,22.25
2019-05-01T05:22:28.322Z,20.92
2019-05-01T05:24:59.121Z,20.60
2019-05-01T05:27:30.197Z,21.50
2019-05-01T05:30:02.105Z,21.23
2019-05-01T05:32:35.833Z,21.55
2019-05-01T05:35:07.521Z,20.60
2019-05-01T05:37:56.525Z,20.10
2019-05-01T05:40:30.779Z,20.70
2019-05-01T05:43:01.462Z,20.10
2019-05-01T05:45:31.988Z,20.32
2019-05-01T05:48:02.510Z,20.27
2019-05-01T05:50:45.863Z,19.90
2019-05-01T05:53:34.639Z,20.23
2019-05-01T05:56:10.735Z,20.62
2019-05-01T05:58:45.969Z,20.08
2019-05-01T06:01:25.358Z,19.77
2019-05-01T06:03:59.569Z,20.50
2019-05-01T06:06:39.286Z,19.20
2019-05-01T06:09:13.880Z,18.15
2019-05-01T06:11:55.739Z,18.92
2019-05-01T06:14:39.318Z,18.55
2019-05-01T06:17:28.610Z,17.87
2019-05-01T06:20:00.464Z,18.82
2019-05-01T06:22:49.763Z,18.73
2019-05-01T06:25:24.814Z,19.73
2019-05-01T06:27:55.234Z,18.50
2019-05-01T06:30:25.744Z,19.55
2019-05-01T06:32:58.582Z,18.65
2019-05-01T06:35:29.147Z,18.15
2019-05-01T06:38:04.783Z,17.98
2019-05-01T06:40:40.812Z,18.60
2019-05-01T06:43:27.601Z,18.32
2019-05-01T06:46:12.050Z,19.00
2019-05-01T06:48:55.703Z,17.85
2019-05-01T06:51:37.046Z,18.10
2019-05-01T06:54:11.341Z,18.32
2019-05-01T06:56:42.650Z,17.62
2019-05-01T06:59:16.630Z,19.30
2019-05-01T07:01:48.334Z,18.12
2019-05-01T07:04:19.442Z,18.25
2019-05-01T07:06:51.936Z,18.87
2019-05-01T07:09:28.094Z,17.92
2019-05-01T07:11:56.313Z,17.32
2019-05-01T07:14:27.430Z,16.48
2019-05-01T07:16:57.799Z,16.85
2019-05-01T07:19:47.171Z,16.35
2019-05-01T07:22:17.775Z,15.93
2019-05-01T07:24:49.122Z,16.17
2019-05-01T07:27:23.669Z,16.37
2019-05-01T07:29:53.889Z,17.37
2019-05-01T07:32:24.336Z,16.82
2019-05-01T07:34:56.850Z,16.32
2019-05-01T07:37:27.942Z,15.03
2019-05-01T07:39:58.655Z,16.48
2019-05-01T07:42:33.612Z,15.65
2019-05-01T07:45:26.944Z,16.00
2019-05-01T07:48:00.998Z,15.75
2019-05-01T07:50:32.661Z,16.65
2019-05-01T07:53:02.836Z,16.50
2019-05-01T07:55:36.363Z,15.48
2019-05-01T07:58:10.432Z,16.12
2019-05-01T08:00:46.728Z,15.68
2019-05-01T08:03:17.229Z,15.18
2019-05-01T08:05:47.685Z,14.87
2019-05-01T08:08:19.576Z,15.78
2019-05-01T08:10:49.961Z,16.17
2019-05-01T08:13:21.912Z,14.70
2019-05-01T08:15:52.481Z,15.08
2019-05-01T08:18:36.091Z,36.55
2019-05-01T08:21:10.511Z,15.78
2019-05-01T08:23:42.690Z,15.53
2019-05-01T08:26:14.461Z,14.23
2019-05-01T08:29:06.583Z,14.83
2019-05-01T08:31:39.533Z,14.30
2019-05-01T08:34:11.522Z,14.35
2019-05-01T08:36:42.697Z,13.72
2019-05-01T08:39:14.068Z,13.78
2019-05-01T08:41:44.515Z,12.78
2019-05-01T08:44:15.089Z,12.80
2019-05-01T08:46:50.937Z,13.22
2019-05-01T08:49:23.681Z,12.47
2019-05-01T08:51:54.075Z,12.82
2019-05-01T08:54:24.572Z,11.43
2019-05-01T08:56:58.119Z,11.12
2019-05-01T08:59:27.060Z,11.60
2019-05-01T09:02:08.919Z,12.25
2019-05-01T09:04:30.981Z,10.13
2019-05-01T09:07:01.970Z,9.28
2019-05-01T09:09:33.326Z,9.55
2019-05-01T09:12:06.780Z,21.65
2019-05-01T09:14:36.857Z,8.68
2019-05-01T09:17:09.018Z,8.85
2019-05-01T09:19:39.581Z,8.28
2019-05-01T09:22:09.938Z,7.55
2019-05-01T09:24:40.669Z,8.43
2019-05-01T09:27:31.188Z,8.48
2019-05-01T09:30:21.876Z,8.20
2019-05-01T09:32:54.350Z,8.43
2019-05-01T09:35:24.158Z,10.60
2019-05-01T09:37:54.551Z,9.05
2019-05-01T09:40:26.635Z,9.30
2019-05-01T09:42:59.334Z,9.20
2019-05-01T09:45:29.006Z,9.78
2019-05-01T09:47:59.495Z,9.13
2019-05-01T09:50:32.349Z,9.75
2019-05-01T09:53:07.743Z,9.10
2019-05-01T09:55:45.680Z,9.68
2019-05-01T09:58:16.125Z,8.73
2019-05-01T10:00:48.840Z,11.63
2019-05-01T10:03:18.676Z,8.50
2019-05-01T10:05:49.144Z,8.50
2019-05-01T10:08:21.015Z,9.15
2019-05-01T10:10:51.433Z,8.33
2019-05-01T10:13:22.373Z,11.70
2019-05-01T10:15:53.933Z,8.35
2019-05-01T10:18:25.790Z,8.75
2019-05-01T10:20:56.316Z,7.58
2019-05-01T10:23:26.777Z,7.92
2019-05-01T10:25:58.761Z,7.53
2019-05-01T10:28:39.795Z,7.80
2019-05-01T10:31:20.365Z,7.72
2019-05-01T10:33:52.344Z,7.90
2019-05-01T10:36:27.197Z,8.10
2019-05-01T10:38:57.593Z,6.90
2019-05-01T10:41:28.009Z,7.50
2019-05-01T10:43:58.444Z,5.67
2019-05-01T10:46:28.877Z,7.70
2019-05-01T10:48:59.974Z,7.33
2019-05-01T10:51:30.517Z,7.10
2019-05-01T10:54:02.441Z,8.08
2019-05-01T10:56:32.890Z,7.47
2019-05-01T10:59:03.353Z,7.85
2019-05-01T11:01:47.329Z,7.97
2019-05-01T11:04:18.833Z,7.35
2019-05-01T11:06:49.270Z,8.85
2019-05-01T11:09:19.655Z,8.78
2019-05-01T11:11:51.712Z,7.97
2019-05-01T11:14:22.315Z,8.48
2019-05-01T11:16:52.743Z,8.43
2019-05-01T11:19:23.112Z,8.10
2019-05-01T11:21:53.513Z,7.80
2019-05-01T11:24:25.449Z,7.83
2019-05-01T11:26:55.839Z,7.80
2019-05-01T11:29:26.247Z,8.65
2019-05-01T11:32:14.678Z,8.20
2019-05-01T11:34:47.178Z,8.43
2019-05-01T11:37:19.146Z,8.43
2019-05-01T11:39:51.239Z,8.15
2019-05-01T11:42:23.232Z,9.35
2019-05-01T11:44:53.716Z,7.78
2019-05-01T11:47:24.201Z,7.42
2019-05-01T11:49:56.167Z,7.70
2019-05-01T11:52:26.554Z,7.08
2019-05-01T11:54:57.158Z,8.00
2019-05-01T11:57:27.553Z,7.30
2019-05-01T11:59:57.962Z,7.10
2019-05-01T12:02:28.360Z,6.83
2019-05-01T12:04:58.925Z,8.33
2019-05-01T12:07:31.021Z,8.80
2019-05-01T12:10:01.456Z,8.15
2019-05-01T12:12:33.436Z,8.03
2019-05-01T12:15:06.449Z,9.28
2019-05-01T12:17:39.906Z,8.78
2019-05-01T12:20:10.909Z,9.18
2019-05-01T12:22:42.925Z,8.40
2019-05-01T12:25:13.331Z,8.15
2019-05-01T12:27:43.731Z,9.35
2019-05-01T12:30:17.112Z,8.70
2019-05-01T12:32:47.486Z,9.83
2019-05-01T12:35:18.790Z,10.23
2019-05-01T12:37:49.242Z,10.25
2019-05-01T12:40:21.547Z,9.15
2019-05-01T12:42:52.949Z,8.55
2019-05-01T12:45:24.320Z,7.87
2019-05-01T12:47:57.998Z,7.03
2019-05-01T12:50:28.704Z,8.30
2019-05-01T12:53:09.897Z,8.33
2019-05-01T12:55:47.638Z,7.50
2019-05-01T12:58:18.007Z,7.97
2019-05-01T13:00:50.893Z,8.93
2019-05-01T13:03:21.276Z,7.97
2019-05-01T13:05:51.677Z,7.35
2019-05-01T13:08:22.086Z,7.60
2019-05-01T13:10:52.474Z,7.20
2019-05-01T13:13:23.045Z,7.60
2019-05-01T13:15:53.527Z,8.98
2019-05-01T13:18:24.819Z,11.68
2019-05-01T13:20:55.210Z,8.28
2019-05-01T13:23:25.624Z,8.80
2019-05-01T13:25:57.618Z,8.15
2019-05-01T13:28:46.140Z,8.88
2019-05-01T13:31:20.898Z,8.25
2019-05-01T13:33:51.272Z,8.30
2019-05-01T13:36:22.503Z,6.87
2019-05-01T13:38:52.962Z,7.85
2019-05-01T13:41:23.362Z,7.60
2019-05-01T13:43:53.770Z,8.15
2019-05-01T13:46:24.169Z,7.67
2019-05-01T13:48:54.581Z,7.55
2019-05-01T13:51:25.032Z,8.05
2019-05-01T13:53:55.438Z,8.78
2019-05-01T13:56:25.820Z,10.13
2019-05-01T13:58:56.675Z,9.40
2019-05-01T14:01:28.509Z,10.23
2019-05-01T14:03:59.136Z,9.55
2019-05-01T14:06:31.143Z,10.30
2019-05-01T14:09:01.982Z,11.60
2019-05-01T14:11:32.427Z,11.08
2019-05-01T14:14:02.851Z,11.12
2019-05-01T14:16:34.877Z,11.15
2019-05-01T14:19:07.013Z,13.00
2019-05-01T14:21:44.719Z,12.30
2019-05-01T14:24:16.711Z,12.63
2019-05-01T14:26:47.097Z,13.93
2019-05-01T14:29:17.619Z,13.88
2019-05-01T14:31:47.999Z,12.98
2019-05-01T14:34:18.415Z,12.55
2019-05-01T14:36:50.459Z,11.35
2019-05-01T14:39:21.184Z,12.37
2019-05-01T14:41:53.029Z,13.48
2019-05-01T14:44:36.039Z,19.55
2019-05-01T14:46:55.642Z,12.58
2019-05-01T14:49:26.067Z,13.45
2019-05-01T14:51:57.975Z,13.10
2019-05-01T14:54:28.441Z,12.47
2019-05-01T14:56:58.818Z,12.90
2019-05-01T14:59:29.252Z,13.50
2019-05-01T15:01:59.625Z,15.60
2019-05-01T15:04:30.156Z,14.63
2019-05-01T15:07:00.777Z,15.03
2019-05-01T15:09:31.292Z,16.52
2019-05-01T15:12:01.754Z,16.87
2019-05-01T15:14:35.292Z,15.05
2019-05-01T15:17:19.339Z,16.07
2019-05-01T15:19:51.333Z,15.53
2019-05-01T15:22:21.750Z,15.25
2019-05-01T15:24:52.226Z,15.65
2019-05-01T15:27:22.635Z,14.83
2019-05-01T15:29:53.023Z,14.43
2019-05-01T15:32:23.558Z,14.83
2019-05-01T15:34:53.985Z,14.85
2019-05-01T15:37:24.444Z,14.73
2019-05-01T15:39:56.634Z,12.88
2019-05-01T15:42:31.690Z,13.68
2019-05-01T15:45:02.104Z,13.30
2019-05-01T15:47:32.666Z,14.07
2019-05-01T15:50:04.124Z,14.18
2019-05-01T15:52:34.593Z,12.88
2019-05-01T15:55:07.996Z,13.20
2019-05-01T15:57:38.404Z,14.30
2019-05-01T16:00:09.924Z,19.17
2019-05-01T16:02:40.305Z,14.25
2019-05-01T16:05:11.135Z,13.50
2019-05-01T16:07:43.815Z,17.15
2019-05-01T16:10:16.833Z,15.58
2019-05-01T16:12:49.278Z,15.03
2019-05-01T16:15:24.529Z,15.50
2019-05-01T16:17:54.970Z,14.53
2019-05-01T16:20:25.391Z,14.95
2019-05-01T16:22:55.781Z,15.05
2019-05-01T16:25:26.212Z,15.55
2019-05-01T16:27:58.085Z,14.87
2019-05-01T16:30:28.514Z,15.98
2019-05-01T16:32:58.888Z,15.88
2019-05-01T16:35:30.168Z,17.05
2019-05-01T16:38:02.126Z,16.77
2019-05-01T16:40:46.077Z,16.87
2019-05-01T16:43:16.456Z,17.12
2019-05-01T16:45:49.894Z,17.73
2019-05-01T16:48:20.270Z,15.58
2019-05-01T16:50:50.708Z,17.62
2019-05-01T16:53:21.090Z,17.35
2019-05-01T16:55:51.669Z,16.93
2019-05-01T16:58:22.068Z,15.72
2019-05-01T17:00:57.034Z,17.30
2019-05-01T17:03:45.454Z,17.55
2019-05-01T17:06:17.550Z,18.95
2019-05-01T17:08:49.546Z,17.77
2019-05-01T17:11:21.617Z,17.87
2019-05-01T17:13:52.010Z,17.25
2019-05-01T17:16:22.467Z,16.93
2019-05-01T17:18:52.878Z,17.48
2019-05-01T17:21:24.876Z,18.57
2019-05-01T17:23:55.324Z,17.55
2019-05-01T17:26:25.722Z,17.10
2019-05-01T17:28:56.369Z,18.42
2019-05-01T17:31:28.353Z,16.85
2019-05-01T17:34:01.699Z,16.97
2019-05-01T17:36:32.073Z,16.93
2019-05-01T17:39:05.456Z,18.02
2019-05-01T17:41:35.862Z,17.92
2019-05-01T17:44:06.349Z,18.45
2019-05-01T17:46:36.724Z,18.05
2019-05-01T17:49:09.659Z,18.07
2019-05-01T17:51:42.655Z,17.70
2019-05-01T17:54:14.241Z,17.57
2019-05-01T17:56:48.381Z,17.32
2019-05-01T17:59:18.226Z,17.65
2019-05-01T18:01:54.688Z,17.77
2019-05-01T18:04:29.240Z,17.00
2019-05-01T18:07:00.021Z,18.67
2019-05-01T18:09:30.437Z,17.60
2019-05-01T18:12:01.020Z,17.85
2019-05-01T18:14:31.601Z,16.97
2019-05-01T18:17:02.036Z,19.30
2019-05-01T18:19:32.510Z,17.20
2019-05-01T18:22:20.935Z,17.30
2019-05-01T18:25:09.117Z,17.32
2019-05-01T18:27:58.783Z,17.45
2019-05-01T18:30:30.788Z,17.92
2019-05-01T18:33:01.304Z,19.25
2019-05-01T18:35:31.764Z,18.17
2019-05-01T18:38:11.593Z,18.98
2019-05-01T18:40:44.353Z,18.85
2019-05-01T18:43:15.168Z,18.85
2019-05-01T18:45:48.145Z,18.73
2019-05-01T18:48:19.874Z,19.52
2019-05-01T18:50:54.985Z,19.35
2019-05-01T18:53:23.241Z,19.45
2019-05-01T18:55:55.271Z,18.40
2019-05-01T18:58:25.881Z,20.05
2019-05-01T19:00:56.262Z,18.90
2019-05-01T19:03:26.891Z,20.02
2019-05-01T19:05:58.968Z,18.80
2019-05-01T19:08:29.422Z,18.40
2019-05-01T19:11:11.727Z,19.02
2019-05-01T19:13:32.213Z,18.85
2019-05-01T19:16:03.456Z,18.55
2019-05-01T19:18:34.849Z,19.20
2019-05-01T19:21:05.687Z,19.48
2019-05-01T19:23:36.256Z,18.27
2019-05-01T19:26:08.274Z,19.00
2019-05-01T19:28:40.163Z,19.12
2019-05-01T19:31:10.760Z,17.65
2019-05-01T19:33:42.846Z,18.75
2019-05-01T19:36:13.311Z,18.80
2019-05-01T19:38:44.684Z,18.62
2019-05-01T19:41:15.086Z,18.42
2019-05-01T19:43:45.583Z,18.23
2019-05-01T19:46:16.266Z,17.73
2019-05-01T19:48:50.806Z,17.75
2019-05-01T19:51:24.074Z,17.60
2019-05-01T19:53:54.107Z,18.12
2019-05-01T19:56:24.615Z,17.57
2019-05-01T19:58:55.102Z,17.48
2019-05-01T20:01:25.668Z,18.10
2019-05-01T20:03:56.036Z,18.12
2019-05-01T20:06:27.941Z,17.82
2019-05-01T20:08:58.440Z,17.65
2019-05-01T20:11:29.585Z,17.12
2019-05-01T20:14:01.533Z,17.62
2019-05-01T20:16:32.029Z,17.27
2019-05-01T20:19:03.925Z,17.50
2019-05-01T20:21:34.389Z,17.52
2019-05-01T20:24:09.459Z,16.05
2019-05-01T20:26:37.338Z,17.23
2019-05-01T20:29:10.722Z,17.55
2019-05-01T20:31:45.779Z,16.48
2019-05-01T20:34:17.433Z,16.82
2019-05-01T20:36:46.914Z,16.75
2019-05-01T20:39:17.345Z,16.20
2019-05-01T20:41:47.723Z,16.20
2019-05-01T20:44:23.971Z,16.10
2019-05-01T20:46:51.111Z,17.05
2019-05-01T20:49:22.505Z,15.83
2019-05-01T20:51:52.984Z,17.32
2019-05-01T20:54:24.881Z,17.12
2019-05-01T20:56:59.876Z,16.52
2019-05-01T20:59:30.358Z,16.42
2019-05-01T21:02:07.590Z,16.77
2019-05-01T21:04:35.970Z,16.30
2019-05-01T21:07:19.821Z,16.07
2019-05-01T21:09:57.200Z,17.55
2019-05-01T21:12:21.555Z,16.90
2019-05-01T21:14:51.981Z,16.73
2019-05-01T21:17:22.410Z,17.20
2019-05-01T21:19:54.466Z,15.72
2019-05-01T21:22:25.106Z,17.70
2019-05-01T21:24:55.625Z,16.37
2019-05-01T21:27:26.062Z,15.53
2019-05-01T21:29:56.491Z,15.75
2019-05-01T21:32:27.624Z,15.53
2019-05-01T21:34:58.394Z,15.23
2019-05-01T21:37:28.802Z,14.35
2019-05-01T21:40:02.666Z,15.25
2019-05-01T21:42:33.046Z,14.35
2019-05-01T21:45:04.470Z,14.68
2019-05-01T21:47:35.013Z,15.15
2019-05-01T21:50:05.738Z,14.38
2019-05-01T21:52:37.622Z,14.25
2019-05-01T21:55:08.046Z,14.43
2019-05-01T21:57:40.701Z,15.25
2019-05-01T22:00:11.195Z,14.68
2019-05-01T22:02:46.276Z,14.68
2019-05-01T22:05:13.688Z,14.63
2019-05-01T22:07:44.131Z,14.80
2019-05-01T22:10:16.918Z,14.78
2019-05-01T22:12:49.064Z,14.73
2019-05-01T22:15:36.771Z,14.60
2019-05-01T22:18:11.415Z,14.80
2019-05-01T22:20:59.788Z,13.43
2019-05-01T22:23:32.660Z,15.25
2019-05-01T22:26:04.860Z,13.60
2019-05-01T22:28:37.033Z,13.68
2019-05-01T22:31:25.241Z,14.78
2019-05-01T22:33:59.770Z,14.23
2019-05-01T22:36:30.201Z,13.00
2019-05-01T22:39:05.696Z,13.25
2019-05-01T22:41:34.146Z,13.28
2019-05-01T22:44:04.758Z,13.05
2019-05-01T22:46:39.049Z,12.98
2019-05-01T22:49:07.270Z,12.88
2019-05-01T22:51:37.763Z,12.85
2019-05-01T22:54:08.137Z,12.98
2019-05-01T22:56:38.539Z,12.68
2019-05-01T22:59:10.521Z,13.13
2019-05-01T23:01:43.949Z,12.60
2019-05-01T23:04:17.244Z,13.00
2019-05-01T23:06:46.502Z,12.98
2019-05-01T23:09:18.715Z,11.78
2019-05-01T23:11:49.283Z,12.82
2019-05-01T23:14:19.994Z,12.37
2019-05-01T23:16:51.943Z,12.47
2019-05-01T23:19:22.903Z,12.65
2019-05-01T23:21:55.021Z,12.20
2019-05-01T23:24:25.540Z,12.23
2019-05-01T23:26:56.766Z,11.68
2019-05-01T23:29:27.191Z,13.72
2019-05-01T23:31:57.774Z,11.65
2019-05-01T23:34:28.208Z,12.23
2019-05-01T23:36:58.694Z,11.95
2019-05-01T23:39:29.253Z,12.33
2019-05-01T23:41:59.833Z,12.85
2019-05-01T23:44:30.295Z,13.45
2019-05-01T23:47:00.919Z,12.43
2019-05-01T23:49:31.365Z,12.98
2019-05-01T23:52:05.162Z,12.60
2019-05-01T23:54:35.757Z,12.78
2019-05-01T23:57:06.175Z,12.68
2019-05-01T23:59:36.568Z,13.28
